createdAt,value
2022-08-05T00:00:46.444Z,5.73
2022-08-05T00:03:19.299Z,6.07
2022-08-05T00:06:05.770Z,5.40
2022-08-05T00:08:36.450Z,5.97
2022-08-05T00:11:24.015Z,5.30
2022-08-05T00:13:56.572Z,5.40
2022-08-05T00:16:36.510Z,5.10
2022-08-05T00:19:12.939Z,5.77
2022-08-05T00:21:42.704Z,5.57
2022-08-05T00:24:16.112Z,5.13
2022-08-05T00:26:51.947Z,5.70
2022-08-05T00:29:22.830Z,5.47
2022-08-05T00:32:12.635Z,6.00
2022-08-05T00:35:04.987Z,5.63
2022-08-05T00:37:50.891Z,5.53
2022-08-05T00:40:27.071Z,5.53
2022-08-05T00:42:59.553Z,5.27
2022-08-05T00:45:37.960Z,5.07
2022-08-05T00:48:08.166Z,5.60
2022-08-05T00:50:37.674Z,5.57
2022-08-05T00:53:09.806Z,4.80
2022-08-05T00:55:54.137Z,5.37
2022-08-05T00:58:27.539Z,4.80
2022-08-05T01:00:57.090Z,5.43
2022-08-05T01:03:31.037Z,5.23
2022-08-05T01:06:02.610Z,5.67
2022-08-05T01:08:42.834Z,5.27
2022-08-05T01:11:22.484Z,5.37
2022-08-05T01:14:08.771Z,5.30
2022-08-05T01:16:44.301Z,4.80
2022-08-05T01:19:36.775Z,4.97
2022-08-05T01:22:37.878Z,5.20
2022-08-05T01:25:39.703Z,5.33
2022-08-05T01:28:25.194Z,4.40
2022-08-05T01:30:58.021Z,5.03
2022-08-05T01:33:35.145Z,5.10
2022-08-05T01:36:12.820Z,5.13
2022-08-05T01:38:45.485Z,4.87
2022-08-05T01:41:15.901Z,4.83
2022-08-05T01:43:47.125Z,5.67
2022-08-05T01:46:41.896Z,5.33
2022-08-05T01:49:22.707Z,5.47
2022-08-05T01:51:58.048Z,5.87
2022-08-05T01:54:31.156Z,6.37
2022-08-05T01:58:09.315Z,6.20
2022-08-05T01:59:52.674Z,6.03
2022-08-05T02:02:28.079Z,6.10
2022-08-05T02:04:59.642Z,5.77
2022-08-05T02:07:30.315Z,5.40
2022-08-05T02:09:59.248Z,5.73
2022-08-05T02:12:35.405Z,5.63
2022-08-05T02:15:12.350Z,6.57
2022-08-05T02:18:32.446Z,5.87
2022-08-05T02:20:41.207Z,6.27
2022-08-05T02:23:13.527Z,6.00
2022-08-05T02:25:50.220Z,6.47
2022-08-05T02:28:29.113Z,6.40
2022-08-05T02:31:07.665Z,6.27
2022-08-05T02:33:48.563Z,5.77
2022-08-05T02:36:21.799Z,6.00
2022-08-05T02:38:58.001Z,5.93
2022-08-05T02:41:28.720Z,5.20
2022-08-05T02:44:13.127Z,5.73
2022-08-05T02:46:58.880Z,6.10
2022-08-05T02:49:35.945Z,5.67
2022-08-05T02:52:09.123Z,5.60
2022-08-05T02:54:41.265Z,5.87
2022-08-05T02:58:11.718Z,5.90
2022-08-05T03:00:01.451Z,6.40
2022-08-05T03:02:35.671Z,6.23
2022-08-05T03:05:05.296Z,6.33
2022-08-05T03:07:48.504Z,6.57
2022-08-05T03:10:25.170Z,6.07
2022-08-05T03:12:55.096Z,7.00
2022-08-05T03:15:24.299Z,5.97
2022-08-05T03:17:57.436Z,6.77
2022-08-05T03:20:26.438Z,7.10
2022-08-05T03:22:57.507Z,7.53
2022-08-05T03:26:03.730Z,7.47
2022-08-05T03:28:18.535Z,7.30
2022-08-05T03:30:48.910Z,7.40
2022-08-05T03:33:19.437Z,7.07
2022-08-05T03:35:49.835Z,6.60
2022-08-05T03:38:32.854Z,6.73
2022-08-05T03:41:08.461Z,7.20
2022-08-05T03:44:09.730Z,7.23
2022-08-05T03:46:29.941Z,7.27
2022-08-05T03:49:02.224Z,7.07
2022-08-05T03:52:48.601Z,6.70
2022-08-05T03:55:33.980Z,6.40
2022-08-05T03:57:29.116Z,6.50
2022-08-05T04:00:15.833Z,6.30
2022-08-05T04:02:57.519Z,6.60
2022-08-05T04:05:33.813Z,6.83
2022-08-05T04:08:05.730Z,6.93
2022-08-05T04:10:53.635Z,6.83
2022-08-05T04:13:23.243Z,7.07
2022-08-05T04:16:03.058Z,6.87
2022-08-05T04:18:34.288Z,7.37
2022-08-05T04:21:07.214Z,7.03
2022-08-05T04:24:05.273Z,7.70
2022-08-05T04:26:32.546Z,7.23
2022-08-05T04:29:01.168Z,7.07
2022-08-05T04:31:38.763Z,7.33
2022-08-05T04:34:31.917Z,7.63
2022-08-05T04:36:57.373Z,7.23
2022-08-05T04:39:27.514Z,6.87
2022-08-05T04:41:56.292Z,7.30
2022-08-05T04:44:30.104Z,7.50
2022-08-05T04:46:59.524Z,7.20
2022-08-05T04:49:38.722Z,7.70
2022-08-05T04:52:18.620Z,7.00
2022-08-05T04:54:47.128Z,7.80
2022-08-05T04:57:17.709Z,7.10
2022-08-05T04:59:47.941Z,7.70
2022-08-05T05:02:36.230Z,7.43
2022-08-05T05:05:16.805Z,6.67
2022-08-05T05:07:56.604Z,6.57
2022-08-05T05:10:29.880Z,6.33
2022-08-05T05:12:58.632Z,8.17
2022-08-05T05:15:57.341Z,6.50
2022-08-05T05:18:31.135Z,7.27
2022-08-05T05:21:03.454Z,6.53
2022-08-05T05:23:39.089Z,6.83
2022-08-05T05:26:28.656Z,7.33
2022-08-05T05:29:02.280Z,7.60
2022-08-05T05:34:01.969Z,7.40
2022-08-05T05:36:31.865Z,7.90
2022-08-05T05:39:03.790Z,8.10
2022-08-05T05:41:40.590Z,7.63
2022-08-05T05:44:35.545Z,8.03
2022-08-05T05:47:04.066Z,8.10
2022-08-05T05:49:33.535Z,8.43
2022-08-05T05:52:07.283Z,8.63
2022-08-05T05:54:51.091Z,8.87
2022-08-05T05:57:20.632Z,9.17
2022-08-05T05:59:49.215Z,9.00
2022-08-05T06:02:27.951Z,8.97
2022-08-05T06:05:16.327Z,8.70
2022-08-05T06:08:01.363Z,9.23
2022-08-05T06:10:36.442Z,8.13
2022-08-05T06:13:05.303Z,8.73
2022-08-05T06:16:31.006Z,9.33
2022-08-05T06:18:22.199Z,7.50
2022-08-05T06:20:59.938Z,8.47
2022-08-05T06:23:28.172Z,7.30
2022-08-05T06:26:21.420Z,6.30
2022-08-05T06:28:52.158Z,5.27
2022-08-05T06:31:22.098Z,5.57
2022-08-05T06:34:06.817Z,5.88
2022-08-05T06:36:57.678Z,5.60
2022-08-05T06:39:27.338Z,5.00
2022-08-05T06:41:58.946Z,5.15
2022-08-05T06:44:27.627Z,4.85
2022-08-05T06:46:56.014Z,4.70
2022-08-05T06:50:00.406Z,5.05
2022-08-05T06:52:36.978Z,4.35
2022-08-05T06:55:02.327Z,4.40
2022-08-05T06:58:03.836Z,3.97
2022-08-05T07:00:24.748Z,4.20
2022-08-05T07:02:54.383Z,4.03
2022-08-05T07:05:27.693Z,4.15
2022-08-05T07:08:10.758Z,4.10
2022-08-05T07:10:39.692Z,3.95
2022-08-05T07:13:58.069Z,4.45
2022-08-05T07:18:01.239Z,3.95
2022-08-05T07:22:28.662Z,3.58
2022-08-05T07:24:59.899Z,3.90
2022-08-05T07:27:57.949Z,3.50
2022-08-05T07:30:33.678Z,3.90
2022-08-05T07:33:08.993Z,3.67
2022-08-05T07:36:04.657Z,3.33
2022-08-05T07:38:34.149Z,3.40
2022-08-05T07:41:35.093Z,3.50
2022-08-05T07:43:56.236Z,3.33
2022-08-05T07:46:27.319Z,3.35
2022-08-05T07:49:03.591Z,3.40
2022-08-05T07:51:37.547Z,3.33
2022-08-05T07:54:11.435Z,3.40
2022-08-05T07:57:14.715Z,3.70
2022-08-05T07:59:39.104Z,3.58
2022-08-05T08:02:16.891Z,3.28
2022-08-05T08:04:48.303Z,3.20
2022-08-05T08:07:17.687Z,3.20
2022-08-05T08:09:46.524Z,3.28
2022-08-05T08:12:37.419Z,3.15
2022-08-05T08:15:14.156Z,2.97
2022-08-05T08:17:53.022Z,2.60
2022-08-05T08:21:00.344Z,2.80
2022-08-05T08:24:02.726Z,2.85
2022-08-05T08:26:02.770Z,3.80
2022-08-05T08:28:37.359Z,3.13
2022-08-05T08:31:21.612Z,3.03
2022-08-05T08:33:53.160Z,3.17
2022-08-05T08:36:39.188Z,3.10
2022-08-05T08:39:15.369Z,2.88
2022-08-05T08:41:51.966Z,3.10
2022-08-05T08:45:22.541Z,2.55
2022-08-05T08:48:07.685Z,3.15
2022-08-05T08:50:30.710Z,3.00
2022-08-05T08:53:11.812Z,3.38
2022-08-05T08:56:04.082Z,3.33
2022-08-05T08:58:43.683Z,3.13
2022-08-05T09:01:18.398Z,3.15
2022-08-05T09:03:48.232Z,3.08
2022-08-05T09:06:28.103Z,2.70
2022-08-05T09:08:59.296Z,2.80
2022-08-05T09:11:50.983Z,2.75
2022-08-05T09:14:56.936Z,2.60
2022-08-05T09:17:08.177Z,3.13
2022-08-05T09:20:02.004Z,2.72
2022-08-05T09:22:32.220Z,2.60
2022-08-05T09:25:13.889Z,2.42
2022-08-05T09:28:04.536Z,2.70
2022-08-05T09:30:34.618Z,2.13
2022-08-05T09:33:04.610Z,2.45
2022-08-05T09:35:33.361Z,2.30
2022-08-05T09:38:17.572Z,2.40
2022-08-05T09:40:52.221Z,2.35
2022-08-05T09:43:40.503Z,2.70
2022-08-05T09:46:27.427Z,2.70
2022-08-05T09:49:07.887Z,2.40
2022-08-05T09:51:48.866Z,2.72
2022-08-05T09:54:31.852Z,2.72
2022-08-05T09:57:01.460Z,2.80
2022-08-05T09:59:36.954Z,2.40
2022-08-05T10:02:06.374Z,2.50
2022-08-05T10:04:40.991Z,2.60
2022-08-05T10:07:14.112Z,2.60
2022-08-05T10:10:14.212Z,2.75
2022-08-05T10:12:49.796Z,2.92
2022-08-05T10:15:25.773Z,2.78
2022-08-05T10:18:07.434Z,3.00
2022-08-05T10:20:38.862Z,2.85
2022-08-05T10:23:08.905Z,2.70
2022-08-05T10:25:58.622Z,2.60
2022-08-05T10:28:30.507Z,2.50
2022-08-05T10:32:48.260Z,4.65
2022-08-05T10:33:54.205Z,2.97
2022-08-05T10:36:23.406Z,2.72
2022-08-05T10:38:57.638Z,3.75
2022-08-05T10:41:46.573Z,3.10
2022-08-05T10:44:19.294Z,3.03
2022-08-05T10:46:50.869Z,2.72
2022-08-05T10:49:27.001Z,2.30
2022-08-05T10:52:03.266Z,2.47
2022-08-05T10:54:57.055Z,2.35
2022-08-05T10:57:31.984Z,2.30
2022-08-05T11:00:19.677Z,2.47
2022-08-05T11:03:23.762Z,2.53
2022-08-05T11:06:15.651Z,2.22
2022-08-05T11:09:32.157Z,2.28
2022-08-05T11:12:43.713Z,2.63
2022-08-05T11:15:23.571Z,2.30
2022-08-05T11:18:30.135Z,2.00
2022-08-05T11:21:02.070Z,2.20
2022-08-05T11:24:03.812Z,2.30
2022-08-05T11:26:32.577Z,2.13
2022-08-05T11:29:11.761Z,2.38
2022-08-05T11:31:58.617Z,2.40
2022-08-05T11:34:51.125Z,2.30
2022-08-05T11:38:31.029Z,2.50
2022-08-05T11:41:15.429Z,2.05
2022-08-05T11:44:05.732Z,2.50
2022-08-05T11:46:58.217Z,2.28
2022-08-05T11:49:28.304Z,2.75
2022-08-05T11:51:57.714Z,2.20
2022-08-05T11:54:33.400Z,2.20
2022-08-05T11:57:07.943Z,2.40
2022-08-05T11:59:49.665Z,2.42
2022-08-05T12:02:29.812Z,2.65
2022-08-05T12:05:06.954Z,2.50
2022-08-05T12:08:09.333Z,2.35
2022-08-05T12:10:38.445Z,2.40
2022-08-05T12:13:16.684Z,2.53
2022-08-05T12:15:50.005Z,2.75
2022-08-05T12:18:32.649Z,2.38
2022-08-05T12:21:12.912Z,2.70
2022-08-05T12:23:54.546Z,2.20
2022-08-05T12:26:23.124Z,2.42
2022-08-05T12:28:52.472Z,2.80
2022-08-05T12:31:23.675Z,2.60
2022-08-05T12:34:03.130Z,2.58
2022-08-05T12:36:33.677Z,2.72
2022-08-05T12:39:05.651Z,3.30
2022-08-05T12:41:43.613Z,2.83
2022-08-05T12:44:21.560Z,2.45
2022-08-05T12:47:01.828Z,2.45
2022-08-05T12:50:02.306Z,2.72
2022-08-05T12:52:37.730Z,2.75
2022-08-05T12:55:22.092Z,2.83
2022-08-05T12:58:49.054Z,2.78
2022-08-05T13:02:00.871Z,2.58
2022-08-05T13:03:33.110Z,2.97
2022-08-05T13:06:01.636Z,2.65
2022-08-05T13:08:33.016Z,3.00
2022-08-05T13:11:02.309Z,2.80
2022-08-05T13:14:05.714Z,2.92
2022-08-05T13:16:24.951Z,2.90
2022-08-05T13:18:55.021Z,2.80
2022-08-05T13:21:28.247Z,3.20
2022-08-05T13:24:08.813Z,2.90
2022-08-05T13:26:37.432Z,2.92
2022-08-05T13:29:05.792Z,3.42
2022-08-05T13:32:04.330Z,3.05
2022-08-05T13:34:25.969Z,3.10
2022-08-05T13:36:55.008Z,3.40
2022-08-05T13:40:16.064Z,3.30
2022-08-05T13:42:14.062Z,2.80
2022-08-05T13:44:45.640Z,3.10
2022-08-05T13:47:34.568Z,3.00
2022-08-05T13:50:04.535Z,3.08
2022-08-05T13:52:35.477Z,3.60
2022-08-05T13:55:07.730Z,3.28
2022-08-05T13:57:51.267Z,3.40
2022-08-05T14:00:27.186Z,3.10
2022-08-05T14:02:57.084Z,2.53
2022-08-05T14:05:29.387Z,2.75
2022-08-05T14:08:20.980Z,2.80
2022-08-05T14:11:03.334Z,2.83
2022-08-05T14:13:48.285Z,2.85
2022-08-05T14:16:19.275Z,2.88
2022-08-05T14:18:47.677Z,2.55
2022-08-05T14:22:07.763Z,2.85
2022-08-05T14:24:04.389Z,2.90
2022-08-05T14:26:36.812Z,2.60
2022-08-05T14:29:16.188Z,2.92
2022-08-05T14:31:54.378Z,2.83
2022-08-05T14:34:35.687Z,2.90
2022-08-05T14:37:04.952Z,3.03
2022-08-05T14:39:49.598Z,2.80
2022-08-05T14:42:21.984Z,2.92
2022-08-05T14:44:50.450Z,2.72
2022-08-05T14:47:58.269Z,2.80
2022-08-05T14:50:17.694Z,3.00
2022-08-05T14:52:57.026Z,2.90
2022-08-05T14:55:38.385Z,2.80
2022-08-05T14:58:11.056Z,2.80
2022-08-05T15:00:58.868Z,2.75
2022-08-05T15:03:33.006Z,2.88
2022-08-05T15:06:08.354Z,2.83
2022-08-05T15:09:01.295Z,3.90
2022-08-05T15:11:51.525Z,3.10
2022-08-05T15:14:35.017Z,2.63
2022-08-05T15:17:44.788Z,3.17
2022-08-05T15:19:58.952Z,2.88
2022-08-05T15:22:28.124Z,2.92
2022-08-05T15:24:58.910Z,3.05
2022-08-05T15:27:32.274Z,2.90
2022-08-05T15:30:06.715Z,3.38
2022-08-05T15:32:35.085Z,2.80
2022-08-05T15:35:09.871Z,3.25
2022-08-05T15:38:33.410Z,2.95
2022-08-05T15:41:01.991Z,2.95
2022-08-05T15:43:20.159Z,2.90
2022-08-05T15:46:00.347Z,3.00
2022-08-05T15:48:29.917Z,3.40
2022-08-05T15:51:03.307Z,3.10
2022-08-05T15:53:38.265Z,3.17
2022-08-05T15:56:18.862Z,2.95
2022-08-05T15:58:47.488Z,3.30
2022-08-05T16:01:18.844Z,3.38
2022-08-05T16:03:50.834Z,3.35
2022-08-05T16:06:20.771Z,4.80
2022-08-05T16:08:53.756Z,4.10
2022-08-05T16:11:39.988Z,4.00
2022-08-05T16:14:17.375Z,4.00
2022-08-05T16:16:47.912Z,4.20
2022-08-05T16:19:25.906Z,4.30
2022-08-05T16:22:05.163Z,3.97
2022-08-05T16:24:41.380Z,3.80
2022-08-05T16:27:47.228Z,3.83
2022-08-05T16:30:23.390Z,4.10
2022-08-05T16:32:56.367Z,4.18
2022-08-05T16:35:28.301Z,4.47
2022-08-05T16:38:10.440Z,4.13
2022-08-05T16:40:51.846Z,3.75
2022-08-05T16:43:25.034Z,3.38
2022-08-05T16:46:03.791Z,3.50
2022-08-05T16:48:38.915Z,3.63
2022-08-05T16:51:08.964Z,3.80
2022-08-05T16:54:05.897Z,4.32
2022-08-05T16:56:29.206Z,4.25
2022-08-05T16:58:58.922Z,4.40
2022-08-05T17:01:53.264Z,4.57
2022-08-05T17:04:18.963Z,3.90
2022-08-05T17:06:53.024Z,4.07
2022-08-05T17:09:22.870Z,4.20
2022-08-05T17:11:55.987Z,3.90
2022-08-05T17:14:37.326Z,3.83
2022-08-05T17:17:14.636Z,4.00
2022-08-05T17:19:46.381Z,3.65
2022-08-05T17:22:17.813Z,3.97
2022-08-05T17:24:56.906Z,4.10
2022-08-05T17:27:27.615Z,3.90
2022-08-05T17:30:03.157Z,4.35
2022-08-05T17:32:33.823Z,4.55
2022-08-05T17:35:04.973Z,5.57
2022-08-05T17:37:41.895Z,8.07
2022-08-05T17:40:15.995Z,6.80
2022-08-05T17:42:51.991Z,5.72
2022-08-05T17:45:23.041Z,6.13
2022-08-05T17:47:54.928Z,5.35
2022-08-05T17:50:28.934Z,5.38
2022-08-05T17:53:00.031Z,6.30
2022-08-05T17:55:38.491Z,8.88
2022-08-05T17:58:11.202Z,9.07
2022-08-05T18:00:45.353Z,13.63
2022-08-05T18:03:48.459Z,15.30
2022-08-05T18:06:12.357Z,8.50
2022-08-05T18:08:52.190Z,8.50
2022-08-05T18:11:23.952Z,6.45
2022-08-05T18:14:04.205Z,6.68
2022-08-05T18:16:33.598Z,6.57
2022-08-05T18:19:02.011Z,6.10
2022-08-05T18:22:09.137Z,5.65
2022-08-05T18:24:21.005Z,5.57
2022-08-05T18:26:49.423Z,5.80
2022-08-05T18:29:17.703Z,5.95
2022-08-05T18:32:07.061Z,6.10
2022-08-05T18:34:41.561Z,5.93
2022-08-05T18:37:16.949Z,6.22
2022-08-05T18:40:33.811Z,6.50
2022-08-05T18:42:49.118Z,5.85
2022-08-05T18:45:17.406Z,6.43
2022-08-05T18:47:48.967Z,6.03
2022-08-05T18:50:42.091Z,6.35
2022-08-05T18:53:22.814Z,6.60
2022-08-05T18:55:53.399Z,6.03
2022-08-05T18:58:27.386Z,6.70
2022-08-05T19:00:57.487Z,6.35
2022-08-05T19:03:53.079Z,6.53
2022-08-05T19:06:20.105Z,6.20
2022-08-05T19:08:51.891Z,6.30
2022-08-05T19:11:28.392Z,6.20
2022-08-05T19:14:01.162Z,6.70
2022-08-05T19:16:47.057Z,6.40
2022-08-05T19:19:15.805Z,6.45
2022-08-05T19:21:51.571Z,7.07
2022-08-05T19:24:34.568Z,7.18
2022-08-05T19:27:04.140Z,7.50
2022-08-05T19:29:36.023Z,7.72
2022-08-05T19:32:05.628Z,7.43
2022-08-05T19:34:37.283Z,7.35
2022-08-05T19:37:06.751Z,8.10
2022-08-05T19:39:45.650Z,8.20
2022-08-05T19:42:34.950Z,9.00
2022-08-05T19:45:05.878Z,7.60
2022-08-05T19:47:37.723Z,7.93
2022-08-05T19:50:07.907Z,7.72
2022-08-05T19:52:38.968Z,8.20
2022-08-05T19:56:14.803Z,8.23
2022-08-05T19:58:19.592Z,8.15
2022-08-05T20:00:46.792Z,7.65
2022-08-05T20:03:15.032Z,8.30
2022-08-05T20:05:51.123Z,8.02
2022-08-05T20:08:20.135Z,7.65
2022-08-05T20:10:49.984Z,8.07
2022-08-05T20:13:30.192Z,7.70
2022-08-05T20:16:07.569Z,8.48
2022-08-05T20:18:36.479Z,8.40
2022-08-05T20:21:06.759Z,8.27
2022-08-05T20:23:39.324Z,8.45
2022-08-05T20:26:19.007Z,8.25
2022-08-05T20:28:48.719Z,8.18
2022-08-05T20:31:17.287Z,8.32
2022-08-05T20:33:45.864Z,8.05
2022-08-05T20:36:17.821Z,8.68
2022-08-05T20:38:54.412Z,8.70
2022-08-05T20:41:43.441Z,8.40
2022-08-05T20:44:17.852Z,8.45
2022-08-05T20:46:58.204Z,8.77
2022-08-05T20:49:26.542Z,8.98
2022-08-05T20:51:55.266Z,8.32
2022-08-05T20:54:25.260Z,8.38
2022-08-05T20:56:54.973Z,9.02
2022-08-05T20:59:26.762Z,8.68
2022-08-05T21:01:58.074Z,8.65
2022-08-05T21:04:27.300Z,8.07
2022-08-05T21:06:55.911Z,8.25
2022-08-05T21:09:24.328Z,8.60
2022-08-05T21:12:07.759Z,8.98
2022-08-05T21:14:40.301Z,8.95
2022-08-05T21:17:08.452Z,8.57
2022-08-05T21:19:46.584Z,8.73
2022-08-05T21:22:23.547Z,8.85
2022-08-05T21:24:54.267Z,8.65
2022-08-05T21:27:27.201Z,8.43
2022-08-05T21:29:56.356Z,8.25
2022-08-05T21:32:26.784Z,8.50
2022-08-05T21:35:08.918Z,8.75
2022-08-05T21:37:47.475Z,9.02
2022-08-05T21:40:21.913Z,9.18
2022-08-05T21:42:53.611Z,9.40
2022-08-05T21:45:24.517Z,9.77
2022-08-05T21:47:57.842Z,10.10
2022-08-05T21:50:26.656Z,10.40
2022-08-05T21:52:58.772Z,10.40
2022-08-05T21:55:42.842Z,10.50
2022-08-05T21:58:17.236Z,10.38
2022-08-05T22:00:51.298Z,9.95
2022-08-05T22:03:20.523Z,9.43
2022-08-05T22:06:08.216Z,9.50
2022-08-05T22:08:36.710Z,8.67
2022-08-05T22:11:11.912Z,8.77
2022-08-05T22:14:33.884Z,9.07
2022-08-05T22:16:50.662Z,9.27
2022-08-05T22:19:57.141Z,8.40
2022-08-05T22:22:08.640Z,7.93
2022-08-05T22:24:55.995Z,8.55
2022-08-05T22:28:09.743Z,8.27
2022-08-05T22:30:32.160Z,8.00
2022-08-05T22:33:03.794Z,7.65
2022-08-05T22:35:47.803Z,8.13
2022-08-05T22:38:19.657Z,8.13
2022-08-05T22:40:49.392Z,7.97
2022-08-05T22:43:37.170Z,7.90
2022-08-05T22:46:13.076Z,7.88
2022-08-05T22:48:49.385Z,7.93
2022-08-05T22:51:23.243Z,8.02
2022-08-05T22:54:05.944Z,7.82
2022-08-05T22:56:34.190Z,7.70
2022-08-05T22:59:03.977Z,7.63
2022-08-05T23:02:06.299Z,7.53
2022-08-05T23:04:36.477Z,7.43
2022-08-05T23:07:07.015Z,7.35
2022-08-05T23:09:57.281Z,6.82
2022-08-05T23:12:24.502Z,7.90
2022-08-05T23:14:53.049Z,7.70
2022-08-05T23:17:34.230Z,7.47
2022-08-05T23:20:16.313Z,8.15
2022-08-05T23:22:47.519Z,7.38
2022-08-05T23:25:50.923Z,7.60
2022-08-05T23:28:06.720Z,7.43
2022-08-05T23:30:39.962Z,7.63
2022-08-05T23:33:16.279Z,7.95
2022-08-05T23:35:51.202Z,7.70
2022-08-05T23:38:19.550Z,7.72
2022-08-05T23:40:49.887Z,7.95
2022-08-05T23:43:25.066Z,7.78
2022-08-05T23:46:21.196Z,7.70
2022-08-05T23:48:59.666Z,8.35
2022-08-05T23:51:45.679Z,8.57
2022-08-05T23:54:25.076Z,8.60
2022-08-05T23:57:03.146Z,8.20
